createdAt,value
2018-09-21T00:00:34.473Z,64.62
2018-09-21T00:04:29.502Z,64.74
2018-09-21T00:07:00.256Z,63.85
2018-09-21T00:09:30.330Z,63.92
2018-09-21T00:12:00.752Z,63.48
2018-09-21T00:14:30.492Z,64.91
2018-09-21T00:17:01.447Z,63.67
2018-09-21T00:19:31.859Z,64.42
2018-09-21T00:22:01.914Z,63.69
2018-09-21T00:24:32.306Z,63.90
2018-09-21T00:27:02.557Z,64.00
2018-09-21T00:29:32.699Z,64.50
2018-09-21T00:32:04.054Z,63.65
2018-09-21T00:34:35.034Z,63.44
2018-09-21T00:37:05.666Z,63.62
2018-09-21T00:39:36.082Z,63.29
2018-09-21T00:42:07.063Z,63.41
2018-09-21T00:44:37.100Z,63.87
2018-09-21T00:47:07.823Z,63.16
2018-09-21T00:49:39.101Z,62.95
2018-09-21T00:52:10.665Z,63.35
2018-09-21T00:54:40.584Z,63.37
2018-09-21T00:57:09.975Z,63.03
2018-09-21T00:59:40.019Z,63.82
2018-09-21T01:02:09.921Z,63.13
2018-09-21T01:04:44.698Z,63.25
2018-09-21T01:07:16.242Z,63.36
2018-09-21T01:09:46.441Z,63.45
2018-09-21T01:12:16.474Z,63.37
2018-09-21T01:14:46.706Z,63.44
2018-09-21T01:17:16.711Z,63.48
2018-09-21T01:19:46.929Z,63.54
2018-09-21T01:22:16.950Z,64.36
2018-09-21T01:24:46.935Z,64.23
2018-09-21T01:27:17.224Z,63.57
2018-09-21T01:29:47.425Z,64.00
2018-09-21T01:32:17.414Z,63.63
2018-09-21T01:34:47.491Z,64.32
2018-09-21T01:37:17.782Z,63.77
2018-09-21T01:39:48.180Z,64.72
2018-09-21T01:42:18.287Z,63.82
2018-09-21T01:44:49.608Z,63.28
2018-09-21T01:47:19.614Z,63.54
2018-09-21T01:49:51.172Z,64.32
2018-09-21T01:52:22.098Z,63.67
2018-09-21T01:54:52.085Z,64.30
2018-09-21T01:57:22.169Z,64.30
2018-09-21T01:59:52.294Z,64.38
2018-09-21T02:02:22.279Z,65.17
2018-09-21T02:04:52.170Z,63.95
2018-09-21T02:07:23.004Z,64.78
2018-09-21T02:09:53.861Z,64.54
2018-09-21T02:12:24.010Z,65.18
2018-09-21T02:14:53.596Z,65.00
2018-09-21T02:17:23.800Z,65.58
2018-09-21T02:19:54.957Z,64.90
2018-09-21T02:22:25.157Z,65.44
2018-09-21T02:24:56.072Z,65.41
2018-09-21T02:27:27.477Z,65.05
2018-09-21T02:29:58.418Z,65.64
2018-09-21T02:32:30.029Z,65.37
2018-09-21T02:35:00.323Z,65.69
2018-09-21T02:37:30.254Z,65.35
2018-09-21T02:40:00.399Z,66.20
2018-09-21T02:42:30.962Z,65.63
2018-09-21T02:45:00.894Z,66.03
2018-09-21T02:47:30.859Z,66.50
2018-09-21T02:50:01.254Z,66.50
2018-09-21T02:52:31.017Z,65.85
2018-09-21T02:55:01.019Z,65.95
2018-09-21T02:57:31.034Z,65.47
2018-09-21T03:00:01.667Z,65.80
2018-09-21T03:02:31.776Z,66.47
2018-09-21T03:05:01.895Z,65.81
2018-09-21T03:07:31.941Z,66.14
2018-09-21T03:10:01.848Z,66.22
2018-09-21T03:12:32.354Z,66.72
2018-09-21T03:15:02.536Z,65.80
2018-09-21T03:17:33.516Z,66.62
2018-09-21T03:20:04.408Z,66.61
2018-09-21T03:22:34.363Z,67.13
2018-09-21T03:25:04.621Z,66.13
2018-09-21T03:27:34.708Z,66.85
2018-09-21T03:30:05.149Z,67.15
2018-09-21T03:32:35.338Z,67.76
2018-09-21T03:35:05.654Z,67.96
2018-09-21T03:37:35.795Z,67.43
2018-09-21T03:40:07.118Z,67.72
2018-09-21T03:42:37.189Z,67.82
2018-09-21T03:45:07.466Z,67.77
2018-09-21T03:47:37.151Z,67.05
2018-09-21T03:50:07.429Z,68.04
2018-09-21T03:52:37.504Z,68.88
2018-09-21T03:55:09.036Z,68.47
2018-09-21T03:57:40.314Z,68.40
2018-09-21T04:00:10.650Z,68.70
2018-09-21T04:02:40.359Z,68.20
2018-09-21T04:05:10.306Z,68.91
2018-09-21T04:07:40.413Z,68.96
2018-09-21T04:10:10.509Z,68.14
2018-09-21T04:12:41.608Z,67.51
2018-09-21T04:15:11.709Z,67.99
2018-09-21T04:17:42.635Z,68.15
2018-09-21T04:20:12.832Z,68.82
2018-09-21T04:22:46.754Z,68.46
2018-09-21T04:25:16.950Z,68.44
2018-09-21T04:27:47.120Z,69.19
2018-09-21T04:30:20.778Z,68.26
2018-09-21T04:32:55.317Z,68.98
2018-09-21T04:35:25.852Z,69.09
2018-09-21T04:37:55.912Z,69.42
2018-09-21T04:40:26.125Z,69.09
2018-09-21T04:42:56.097Z,69.53
2018-09-21T04:45:26.160Z,69.01
2018-09-21T04:47:56.279Z,69.23
2018-09-21T04:50:26.406Z,68.94
2018-09-21T04:52:56.420Z,69.06
2018-09-21T04:55:26.619Z,68.85
2018-09-21T04:57:57.018Z,69.66
2018-09-21T05:00:27.035Z,69.36
2018-09-21T05:02:57.333Z,69.56
2018-09-21T05:05:27.947Z,68.90
2018-09-21T05:07:57.985Z,70.52
2018-09-21T05:10:28.058Z,69.61
2018-09-21T05:12:58.209Z,69.15
2018-09-21T05:15:29.369Z,70.09
2018-09-21T05:17:59.967Z,69.28
2018-09-21T05:20:30.179Z,69.41
2018-09-21T05:23:00.328Z,68.49
2018-09-21T05:25:31.287Z,68.93
2018-09-21T05:28:01.327Z,69.32
2018-09-21T05:30:31.435Z,69.35
2018-09-21T05:33:01.496Z,68.69
2018-09-21T05:35:31.513Z,68.95
2018-09-21T05:38:01.836Z,68.60
2018-09-21T05:40:31.668Z,68.27
2018-09-21T05:43:02.155Z,68.51
2018-09-21T05:45:33.061Z,67.76
2018-09-21T05:48:02.826Z,67.86
2018-09-21T05:50:32.933Z,67.45
2018-09-21T05:53:03.161Z,67.57
2018-09-21T05:55:33.425Z,67.07
2018-09-21T05:58:03.886Z,67.09
2018-09-21T06:00:33.867Z,66.66
2018-09-21T06:03:03.951Z,66.08
2018-09-21T06:05:34.008Z,65.42
2018-09-21T06:08:04.017Z,65.76
2018-09-21T06:10:34.026Z,64.73
2018-09-21T06:13:03.773Z,65.22
2018-09-21T06:15:34.095Z,64.11
2018-09-21T06:18:07.314Z,64.04
2018-09-21T06:20:37.486Z,63.42
2018-09-21T06:23:07.504Z,61.97
2018-09-21T06:25:37.551Z,61.80
2018-09-21T06:28:07.626Z,61.96
2018-09-21T06:30:38.398Z,61.23
2018-09-21T06:33:07.841Z,61.61
2018-09-21T06:35:37.795Z,60.22
2018-09-21T06:38:07.998Z,59.99
2018-09-21T06:40:38.116Z,59.89
2018-09-21T06:43:09.225Z,60.34
2018-09-21T06:45:39.596Z,58.64
2018-09-21T06:48:09.760Z,58.68
2018-09-21T06:50:39.885Z,58.74
2018-09-21T06:53:09.419Z,58.73
2018-09-21T06:55:39.416Z,57.45
2018-09-21T06:58:10.650Z,56.68
2018-09-21T07:00:41.665Z,57.50
2018-09-21T07:03:12.358Z,56.16
2018-09-21T07:05:42.282Z,55.41
2018-09-21T07:08:12.213Z,55.69
2018-09-21T07:10:43.014Z,54.89
2018-09-21T07:13:13.137Z,55.15
2018-09-21T07:15:44.086Z,53.77
2018-09-21T07:18:14.152Z,53.29
2018-09-21T07:20:44.367Z,54.30
2018-09-21T07:23:14.233Z,54.18
2018-09-21T07:25:44.266Z,54.14
2018-09-21T07:28:14.421Z,53.47
2018-09-21T07:30:45.508Z,53.81
2018-09-21T07:33:15.693Z,52.13
2018-09-21T07:35:46.568Z,53.30
2018-09-21T07:38:16.811Z,52.59
2018-09-21T07:40:47.027Z,53.28
2018-09-21T07:43:17.532Z,53.41
2018-09-21T07:45:47.647Z,52.72
2018-09-21T07:48:17.226Z,51.34
2018-09-21T07:50:47.156Z,52.33
2018-09-21T07:53:17.026Z,50.64
2018-09-21T07:55:47.053Z,50.46
2018-09-21T07:58:17.206Z,49.74
2018-09-21T08:00:47.148Z,50.38
2018-09-21T08:03:17.909Z,49.08
2018-09-21T08:05:47.984Z,48.24
2018-09-21T08:08:17.849Z,47.16
2018-09-21T08:10:47.904Z,48.02
2018-09-21T08:13:17.849Z,46.95
2018-09-21T08:15:47.856Z,47.38
2018-09-21T08:18:17.964Z,45.35
2018-09-21T08:20:48.234Z,46.12
2018-09-21T08:23:18.155Z,45.82
2018-09-21T08:25:48.240Z,43.19
2018-09-21T08:28:18.256Z,43.78
2018-09-21T08:30:48.276Z,43.77
2018-09-21T08:33:18.330Z,44.95
2018-09-21T08:35:48.373Z,42.97
2018-09-21T08:38:18.491Z,42.87
2018-09-21T08:40:48.667Z,43.59
2018-09-21T08:43:18.760Z,40.69
2018-09-21T08:45:48.649Z,40.92
2018-09-21T08:48:19.470Z,41.26
2018-09-21T08:50:49.607Z,42.16
2018-09-21T08:53:19.831Z,39.62
2018-09-21T08:55:49.973Z,40.14
2018-09-21T08:58:20.041Z,38.89
2018-09-21T09:00:50.597Z,39.19
2018-09-21T09:03:20.612Z,38.89
2018-09-21T09:05:53.232Z,38.33
2018-09-21T09:08:25.044Z,37.92
2018-09-21T09:10:55.376Z,38.01
2018-09-21T09:13:25.261Z,38.06
2018-09-21T09:15:55.433Z,37.38
2018-09-21T09:18:25.495Z,37.60
2018-09-21T09:20:55.557Z,37.96
2018-09-21T09:23:25.708Z,37.40
2018-09-21T09:25:55.594Z,37.83
2018-09-21T09:28:26.588Z,35.79
2018-09-21T09:30:57.153Z,36.11
2018-09-21T09:33:27.543Z,37.08
2018-09-21T09:35:58.445Z,36.60
2018-09-21T09:38:28.565Z,36.81
2018-09-21T09:40:58.693Z,35.93
2018-09-21T09:43:28.474Z,34.54
2018-09-21T09:45:58.328Z,34.76
2018-09-21T09:48:28.309Z,34.90
2018-09-21T09:50:58.346Z,35.81
2018-09-21T09:53:28.459Z,35.96
2018-09-21T09:55:58.409Z,35.24
2018-09-21T09:58:29.406Z,35.07
2018-09-21T10:01:00.012Z,34.87
2018-09-21T10:03:29.948Z,33.84
2018-09-21T10:05:59.975Z,33.78
2018-09-21T10:08:30.001Z,34.01
2018-09-21T10:10:59.956Z,33.87
2018-09-21T10:13:30.261Z,34.64
2018-09-21T10:16:00.240Z,34.28
2018-09-21T10:18:30.127Z,34.31
2018-09-21T10:21:00.236Z,32.98
2018-09-21T10:23:30.274Z,33.11
2018-09-21T10:26:00.380Z,33.73
2018-09-21T10:28:31.632Z,33.62
2018-09-21T10:31:02.130Z,32.90
2018-09-21T10:33:32.067Z,32.84
2018-09-21T10:36:02.069Z,32.35
2018-09-21T10:38:32.652Z,32.41
2018-09-21T10:41:03.101Z,31.64
2018-09-21T10:43:33.412Z,31.55
2018-09-21T10:46:03.933Z,32.11
2018-09-21T10:48:34.596Z,31.80
2018-09-21T10:51:04.465Z,33.09
2018-09-21T10:53:35.493Z,33.62
2018-09-21T10:56:05.512Z,33.79
2018-09-21T10:58:36.130Z,33.82
2018-09-21T11:01:06.284Z,34.59
2018-09-21T11:03:37.709Z,34.62
2018-09-21T11:06:07.688Z,35.12
2018-09-21T11:08:37.890Z,35.27
2018-09-21T11:11:08.411Z,35.48
2018-09-21T11:13:38.334Z,36.01
2018-09-21T11:16:08.369Z,35.67
2018-09-21T11:18:38.237Z,35.55
2018-09-21T11:21:08.071Z,35.69
2018-09-21T11:23:38.078Z,36.35
2018-09-21T11:26:08.009Z,36.97
2018-09-21T11:28:38.044Z,36.57
2018-09-21T11:31:08.859Z,36.96
2018-09-21T11:33:38.717Z,36.82
2018-09-21T11:36:08.798Z,37.00
2018-09-21T11:38:38.810Z,36.53
2018-09-21T11:41:08.896Z,36.92
2018-09-21T11:43:39.747Z,36.60
2018-09-21T11:46:09.860Z,36.33
2018-09-21T11:48:40.103Z,36.41
2018-09-21T11:51:10.145Z,36.09
2018-09-21T11:53:40.260Z,36.82
2018-09-21T11:56:11.193Z,36.90
2018-09-21T11:58:41.338Z,37.15
2018-09-21T12:01:11.388Z,37.24
2018-09-21T12:03:41.926Z,36.85
2018-09-21T12:06:12.889Z,37.24
2018-09-21T12:08:43.138Z,37.02
2018-09-21T12:11:13.345Z,37.17
2018-09-21T12:13:43.110Z,37.31
2018-09-21T12:16:13.034Z,37.47
2018-09-21T12:18:43.825Z,38.04
2018-09-21T12:21:14.437Z,38.46
2018-09-21T12:23:44.246Z,38.18
2018-09-21T12:26:15.729Z,38.03
2018-09-21T12:28:46.588Z,38.00
2018-09-21T12:31:16.528Z,37.99
2018-09-21T12:33:46.541Z,37.69
2018-09-21T12:36:16.942Z,37.66
2018-09-21T12:38:47.018Z,37.74
2018-09-21T12:41:17.133Z,37.83
2018-09-21T12:43:47.865Z,38.05
2018-09-21T12:46:22.285Z,37.90
2018-09-21T12:48:53.695Z,38.17
2018-09-21T12:51:24.172Z,38.35
2018-09-21T12:53:53.948Z,38.51
2018-09-21T12:56:25.096Z,38.49
2018-09-21T12:58:55.406Z,38.45
2018-09-21T13:01:25.582Z,38.53
2018-09-21T13:03:55.557Z,38.70
2018-09-21T13:06:26.017Z,39.04
2018-09-21T13:08:56.594Z,39.75
2018-09-21T13:11:27.439Z,39.43
2018-09-21T13:13:58.010Z,39.17
2018-09-21T13:16:27.987Z,38.44
2018-09-21T13:18:57.842Z,38.52
2018-09-21T13:21:27.834Z,38.99
2018-09-21T13:23:57.849Z,38.63
2018-09-21T13:26:28.140Z,38.48
2018-09-21T13:28:58.302Z,39.05
2018-09-21T13:31:28.336Z,38.58
2018-09-21T13:33:58.447Z,38.58
2018-09-21T13:36:29.595Z,38.90
2018-09-21T13:38:59.507Z,38.67
2018-09-21T13:41:30.099Z,38.56
2018-09-21T13:44:00.256Z,39.69
2018-09-21T13:46:30.508Z,39.54
2018-09-21T13:49:00.524Z,40.02
2018-09-21T13:51:30.778Z,40.11
2018-09-21T13:54:00.783Z,40.73
2018-09-21T13:56:30.932Z,40.87
2018-09-21T13:59:01.261Z,40.94
2018-09-21T14:01:31.406Z,41.20
2018-09-21T14:04:02.223Z,41.33
2018-09-21T14:06:32.372Z,42.30
2018-09-21T14:09:03.786Z,41.47
2018-09-21T14:11:33.836Z,41.71
2018-09-21T14:14:03.890Z,41.40
2018-09-21T14:16:33.882Z,41.84
2018-09-21T14:19:04.415Z,41.77
2018-09-21T14:21:34.521Z,41.39
2018-09-21T14:24:04.878Z,41.39
2018-09-21T14:26:35.572Z,41.86
2018-09-21T14:29:06.957Z,41.90
2018-09-21T14:31:38.208Z,41.86
2018-09-21T14:34:08.135Z,42.18
2018-09-21T14:36:38.894Z,41.65
2018-09-21T14:39:11.255Z,42.34
2018-09-21T14:41:41.417Z,49.43
2018-09-21T14:44:12.164Z,55.01
2018-09-21T14:46:42.260Z,57.98
2018-09-21T14:49:12.618Z,59.64
2018-09-21T14:51:42.810Z,57.56
2018-09-21T14:54:13.031Z,57.97
2018-09-21T14:56:42.868Z,57.24
2018-09-21T14:59:13.132Z,57.87
2018-09-21T15:03:12.484Z,57.70
2018-09-21T15:05:43.047Z,58.08
2018-09-21T15:08:13.109Z,59.48
2018-09-21T15:10:43.416Z,61.36
2018-09-21T15:13:13.337Z,62.07
2018-09-21T15:15:43.993Z,63.33
2018-09-21T15:18:13.720Z,63.50
2018-09-21T15:20:45.053Z,63.57
2018-09-21T15:23:15.068Z,65.47
2018-09-21T15:25:44.705Z,66.88
2018-09-21T15:28:14.459Z,66.17
2018-09-21T15:30:45.534Z,65.54
2018-09-21T15:33:17.180Z,70.15
2018-09-21T15:35:46.642Z,68.54
2018-09-21T15:38:17.125Z,69.76
2018-09-21T15:40:47.178Z,68.86
2018-09-21T15:43:17.373Z,71.54
2018-09-21T15:45:47.567Z,70.96
2018-09-21T15:48:17.659Z,67.58
2018-09-21T15:50:48.601Z,69.30
2018-09-21T15:53:19.518Z,68.53
2018-09-21T15:55:50.880Z,71.05
2018-09-21T15:58:20.426Z,72.95
2018-09-21T16:00:50.610Z,70.29
2018-09-21T16:03:20.661Z,71.52
2018-09-21T16:05:50.586Z,72.25
2018-09-21T16:08:21.034Z,72.03
2018-09-21T16:10:51.109Z,71.84
2018-09-21T16:13:21.534Z,71.52
2018-09-21T16:15:51.416Z,70.42
2018-09-21T16:18:21.325Z,73.68
2018-09-21T16:20:51.341Z,74.03
2018-09-21T16:23:21.124Z,75.16
2018-09-21T16:25:50.291Z,75.31
2018-09-21T16:28:20.167Z,75.61
2018-09-21T16:30:49.930Z,73.80
2018-09-21T16:33:20.682Z,74.64
2018-09-21T16:35:50.323Z,77.45
2018-09-21T16:38:20.239Z,77.50
2018-09-21T16:40:50.266Z,74.68
2018-09-21T16:43:20.125Z,76.51
2018-09-21T16:45:50.071Z,76.07
2018-09-21T16:48:20.077Z,75.18
2018-09-21T16:50:49.891Z,76.55
2018-09-21T16:53:19.804Z,73.77
2018-09-21T16:55:49.306Z,76.50
2018-09-21T16:58:19.226Z,76.29
2018-09-21T17:00:49.546Z,79.18
2018-09-21T17:03:20.837Z,77.97
2018-09-21T17:05:50.882Z,77.18
2018-09-21T17:08:20.999Z,77.74
2018-09-21T17:10:51.169Z,80.08
2018-09-21T17:13:21.967Z,77.83
2018-09-21T17:15:52.012Z,77.37
2018-09-21T17:18:21.941Z,77.01
2018-09-21T17:20:52.068Z,76.89
2018-09-21T17:23:22.586Z,78.30
2018-09-21T17:25:53.104Z,76.78
2018-09-21T17:28:23.542Z,77.76
2018-09-21T17:30:54.233Z,76.89
2018-09-21T17:33:24.249Z,77.82
2018-09-21T17:35:55.713Z,76.13
2018-09-21T17:38:25.809Z,74.88
2018-09-21T17:40:56.139Z,78.07
2018-09-21T17:43:26.345Z,76.00
2018-09-21T17:45:56.509Z,79.53
2018-09-21T17:48:26.669Z,78.99
2018-09-21T17:50:56.463Z,76.49
2018-09-21T17:53:26.388Z,77.21
2018-09-21T17:55:56.406Z,78.79
2018-09-21T17:58:26.783Z,77.53
2018-09-21T18:00:56.670Z,77.36
2018-09-21T18:03:27.178Z,78.48
2018-09-21T18:05:57.219Z,79.19
2018-09-21T18:08:27.229Z,78.12
2018-09-21T18:10:57.638Z,78.77
2018-09-21T18:13:27.773Z,77.47
2018-09-21T18:15:58.107Z,78.77
2018-09-21T18:18:29.088Z,78.01
2018-09-21T18:21:00.152Z,79.25
2018-09-21T18:23:30.180Z,79.82
2018-09-21T18:26:00.495Z,79.10
2018-09-21T18:28:30.470Z,78.63
2018-09-21T18:31:00.769Z,77.95
2018-09-21T18:33:30.759Z,78.14
2018-09-21T18:36:01.599Z,79.27
2018-09-21T18:38:31.428Z,79.77
2018-09-21T18:41:02.340Z,80.00
2018-09-21T18:43:32.716Z,79.54
2018-09-21T18:46:02.716Z,79.08
2018-09-21T18:48:32.760Z,77.38
2018-09-21T18:51:02.850Z,77.74
2018-09-21T18:53:33.435Z,77.73
2018-09-21T18:56:03.656Z,78.50
2018-09-21T18:58:34.429Z,79.37
2018-09-21T19:01:05.983Z,77.88
2018-09-21T19:03:36.435Z,78.93
2018-09-21T19:06:06.468Z,77.62
2018-09-21T19:08:36.954Z,78.21
2018-09-21T19:11:07.201Z,77.75
2018-09-21T19:13:37.255Z,79.38
2018-09-21T19:16:07.308Z,78.26
2018-09-21T19:18:36.915Z,78.21
2018-09-21T19:21:07.357Z,79.56
2018-09-21T19:23:38.336Z,78.02
2018-09-21T19:26:09.891Z,77.46
2018-09-21T19:28:40.051Z,77.41
2018-09-21T19:31:10.192Z,77.74
2018-09-21T19:33:40.735Z,78.27
2018-09-21T19:36:10.931Z,79.05
2018-09-21T19:38:41.178Z,77.40
2018-09-21T19:41:11.291Z,78.31
2018-09-21T19:43:41.179Z,78.06
2018-09-21T19:46:12.211Z,77.22
2018-09-21T19:48:42.246Z,77.99
2018-09-21T19:51:13.397Z,78.75
2018-09-21T19:53:43.576Z,78.10
2018-09-21T19:56:13.482Z,77.24
2018-09-21T19:58:43.518Z,78.26
2018-09-21T20:01:14.290Z,78.37
2018-09-21T20:03:43.664Z,77.80
2018-09-21T20:06:13.892Z,79.67
2018-09-21T20:08:43.922Z,79.08
2018-09-21T20:11:14.430Z,78.13
2018-09-21T20:13:44.145Z,78.71
2018-09-21T20:16:14.411Z,77.38
2018-09-21T20:18:44.921Z,77.79
2018-09-21T20:21:14.674Z,79.98
2018-09-21T20:23:44.819Z,77.85
2018-09-21T20:26:14.932Z,77.88
2018-09-21T20:28:45.214Z,77.23
2018-09-21T20:31:20.538Z,77.18
2018-09-21T20:33:50.672Z,78.57
2018-09-21T20:36:20.859Z,77.80
2018-09-21T20:38:50.823Z,77.55
2018-09-21T20:41:21.569Z,77.87
2018-09-21T20:43:51.557Z,76.52
2018-09-21T20:46:21.494Z,77.22
2018-09-21T20:48:52.241Z,77.16
2018-09-21T20:51:22.389Z,76.77
2018-09-21T20:53:53.025Z,76.57
2018-09-21T20:56:22.977Z,75.58
2018-09-21T20:58:53.410Z,76.07
2018-09-21T21:01:23.444Z,75.16
2018-09-21T21:03:53.323Z,76.52
2018-09-21T21:06:23.367Z,77.41
2018-09-21T21:08:53.417Z,76.56
2018-09-21T21:11:23.483Z,75.27
2018-09-21T21:13:53.774Z,75.12
2018-09-21T21:16:23.645Z,75.71
2018-09-21T21:18:54.409Z,74.87
2018-09-21T21:21:24.547Z,74.60
2018-09-21T21:23:54.924Z,75.31
2018-09-21T21:26:25.628Z,74.51
2018-09-21T21:28:55.648Z,74.63
2018-09-21T21:31:25.679Z,73.90
2018-09-21T21:33:56.381Z,74.30
2018-09-21T21:36:26.755Z,73.18
2018-09-21T21:38:57.267Z,74.26
2018-09-21T21:41:27.011Z,73.41
2018-09-21T21:43:57.003Z,72.81
2018-09-21T21:46:27.396Z,72.68
2018-09-21T21:48:57.670Z,72.72
2018-09-21T21:51:27.517Z,72.92
2018-09-21T21:53:57.563Z,73.23
2018-09-21T21:56:28.065Z,72.90
2018-09-21T21:58:58.407Z,71.71
2018-09-21T22:01:34.171Z,70.94
2018-09-21T22:04:04.042Z,70.40
2018-09-21T22:06:33.225Z,70.34
2018-09-21T22:09:05.140Z,70.35
2018-09-21T22:11:39.418Z,70.11
2018-09-21T22:14:09.902Z,69.94
2018-09-21T22:16:39.936Z,70.04
2018-09-21T22:19:10.455Z,70.41
2018-09-21T22:21:40.621Z,70.23
2018-09-21T22:24:10.850Z,69.96
2018-09-21T22:26:41.054Z,70.53
2018-09-21T22:29:11.471Z,70.59
2018-09-21T22:31:41.293Z,70.84
2018-09-21T22:34:12.543Z,70.68
2018-09-21T22:36:42.591Z,70.92
2018-09-21T22:39:13.138Z,70.46
2018-09-21T22:41:43.186Z,71.27
2018-09-21T22:44:13.287Z,70.69
2018-09-21T22:46:43.217Z,70.23
2018-09-21T22:49:21.087Z,71.16
2018-09-21T22:51:51.927Z,71.23
2018-09-21T22:54:21.595Z,70.54
2018-09-21T22:56:51.929Z,70.62
2018-09-21T22:59:21.562Z,70.43
2018-09-21T23:01:53.699Z,71.06
2018-09-21T23:04:23.236Z,70.26
2018-09-21T23:06:53.566Z,72.68
2018-09-21T23:09:23.693Z,71.20
2018-09-21T23:11:53.745Z,70.27
2018-09-21T23:14:23.570Z,70.51
2018-09-21T23:16:54.027Z,71.64
2018-09-21T23:19:24.202Z,70.17
2018-09-21T23:21:54.243Z,71.09
2018-09-21T23:24:24.271Z,70.27
2018-09-21T23:26:53.767Z,70.47
2018-09-21T23:29:23.838Z,70.09
2018-09-21T23:31:55.546Z,69.63
2018-09-21T23:34:25.563Z,69.24
2018-09-21T23:36:56.033Z,68.72
2018-09-21T23:39:26.154Z,68.81
2018-09-21T23:41:57.459Z,68.68
2018-09-21T23:44:28.117Z,68.21
2018-09-21T23:46:57.819Z,68.61
2018-09-21T23:49:28.030Z,68.35
2018-09-21T23:51:58.160Z,68.16
2018-09-21T23:54:28.095Z,68.65
2018-09-21T23:56:58.088Z,68.05
2018-09-21T23:59:29.047Z,68.05
